createdAt,value
2022-11-13T00:01:48.438Z,10.90
2022-11-13T00:04:35.752Z,10.90
2022-11-13T00:07:25.931Z,11.00
2022-11-13T00:10:12.984Z,11.00
2022-11-13T00:13:01.531Z,11.00
2022-11-13T00:15:58.578Z,11.00
2022-11-13T00:18:45.956Z,11.00
2022-11-13T00:21:33.325Z,11.00
2022-11-13T00:24:21.120Z,11.00
2022-11-13T00:27:08.161Z,11.00
2022-11-13T00:29:56.345Z,11.00
2022-11-13T00:32:43.388Z,11.00
2022-11-13T00:35:30.283Z,11.00
2022-11-13T00:38:16.971Z,11.00
2022-11-13T00:41:03.776Z,11.00
2022-11-13T00:43:50.680Z,10.90
2022-11-13T00:46:39.003Z,10.90
2022-11-13T00:49:25.963Z,10.90
2022-11-13T00:52:13.167Z,11.00
2022-11-13T00:55:00.377Z,10.90
2022-11-13T00:57:47.491Z,10.90
2022-11-13T01:00:35.241Z,11.00
2022-11-13T01:03:23.780Z,11.00
2022-11-13T01:06:13.928Z,11.00
2022-11-13T01:09:01.175Z,11.00
2022-11-13T01:11:48.135Z,10.90
2022-11-13T01:14:35.107Z,10.90
2022-11-13T01:17:21.936Z,11.00
2022-11-13T01:20:11.939Z,11.00
2022-11-13T01:22:58.913Z,11.00
2022-11-13T01:25:46.200Z,11.00
2022-11-13T01:28:32.900Z,11.10
2022-11-13T01:31:22.756Z,11.10
2022-11-13T01:34:09.876Z,11.10
2022-11-13T01:36:58.185Z,11.10
2022-11-13T01:39:45.379Z,11.10
2022-11-13T01:42:33.776Z,11.10
2022-11-13T01:45:58.266Z,11.00
2022-11-13T01:48:48.770Z,11.00
2022-11-13T01:51:39.962Z,11.00
2022-11-13T01:54:31.267Z,11.00
2022-11-13T01:57:33.867Z,11.00
2022-11-13T02:00:21.336Z,11.00
2022-11-13T02:03:08.568Z,10.90
2022-11-13T02:05:55.974Z,10.90
2022-11-13T02:08:44.776Z,10.80
2022-11-13T02:11:32.975Z,10.80
2022-11-13T02:14:22.476Z,10.80
2022-11-13T02:17:14.168Z,10.70
2022-11-13T02:20:04.451Z,10.70
2022-11-13T02:26:01.768Z,10.60
2022-11-13T02:28:48.736Z,10.60
2022-11-13T02:31:35.683Z,10.50
2022-11-13T02:34:25.291Z,10.50
2022-11-13T02:37:12.650Z,10.40
2022-11-13T02:40:00.725Z,10.40
2022-11-13T02:42:49.231Z,10.40
2022-11-13T02:45:38.637Z,10.30
2022-11-13T02:48:25.909Z,10.30
2022-11-13T02:51:13.987Z,10.30
2022-11-13T02:54:01.439Z,10.30
2022-11-13T02:56:48.567Z,10.30
2022-11-13T02:59:37.253Z,10.30
2022-11-13T03:02:25.641Z,10.30
2022-11-13T03:05:13.811Z,10.30
2022-11-13T03:08:00.898Z,10.30
2022-11-13T03:10:50.641Z,10.30
2022-11-13T03:13:37.991Z,10.30
2022-11-13T03:16:26.483Z,10.30
2022-11-13T03:19:13.520Z,10.20
2022-11-13T03:22:00.508Z,10.20
2022-11-13T03:24:47.798Z,10.20
2022-11-13T03:27:34.796Z,10.20
2022-11-13T03:30:22.039Z,10.10
2022-11-13T03:33:10.456Z,10.10
2022-11-13T03:35:57.860Z,10.10
2022-11-13T03:38:44.863Z,10.10
2022-11-13T03:41:31.844Z,10.10
2022-11-13T03:44:18.967Z,10.00
2022-11-13T03:47:06.215Z,10.00
2022-11-13T03:49:54.639Z,10.00
2022-11-13T03:52:41.875Z,9.90
2022-11-13T03:55:28.845Z,9.90
2022-11-13T03:58:16.076Z,9.80
2022-11-13T04:01:03.565Z,9.80
2022-11-13T04:03:50.679Z,9.80
2022-11-13T04:06:39.305Z,9.80
2022-11-13T04:09:26.352Z,9.70
2022-11-13T04:12:13.525Z,9.70
2022-11-13T04:15:00.765Z,9.70
2022-11-13T04:17:47.785Z,9.70
2022-11-13T04:20:35.205Z,9.70
2022-11-13T04:23:23.842Z,9.60
2022-11-13T04:26:11.040Z,9.60
2022-11-13T04:28:57.985Z,9.50
2022-11-13T04:31:44.710Z,9.50
2022-11-13T04:34:31.417Z,9.50
2022-11-13T04:37:18.580Z,9.50
2022-11-13T04:40:08.233Z,9.40
2022-11-13T04:42:54.404Z,9.40
2022-11-13T04:45:41.138Z,9.30
2022-11-13T04:48:28.370Z,9.30
2022-11-13T04:51:15.648Z,9.30
2022-11-13T04:54:02.716Z,9.20
2022-11-13T04:56:51.669Z,9.20
2022-11-13T04:59:38.791Z,9.20
2022-11-13T05:02:26.847Z,9.20
2022-11-13T05:05:14.043Z,9.20
2022-11-13T05:08:00.798Z,9.20
2022-11-13T05:10:47.664Z,9.20
2022-11-13T05:13:37.352Z,9.20
2022-11-13T05:16:24.452Z,9.10
2022-11-13T05:19:11.767Z,9.10
2022-11-13T05:21:58.941Z,9.00
2022-11-13T05:24:45.773Z,9.00
2022-11-13T05:27:32.645Z,9.00
2022-11-13T05:30:21.001Z,8.90
2022-11-13T05:33:08.344Z,8.90
2022-11-13T05:35:55.419Z,8.90
2022-11-13T05:38:43.512Z,8.90
2022-11-13T05:41:30.793Z,8.90
2022-11-13T05:44:18.292Z,8.90
2022-11-13T05:47:06.472Z,8.90
2022-11-13T05:49:53.850Z,8.80
2022-11-13T05:52:40.849Z,8.80
2022-11-13T05:55:27.885Z,8.80
2022-11-13T05:58:14.923Z,8.80
2022-11-13T06:01:10.968Z,9.00
2022-11-13T06:04:00.942Z,9.20
2022-11-13T06:06:47.947Z,9.30
2022-11-13T06:09:34.883Z,9.40
2022-11-13T06:12:24.005Z,9.40
2022-11-13T06:15:11.541Z,9.50
2022-11-13T06:17:58.966Z,9.50
2022-11-13T06:20:47.521Z,9.50
2022-11-13T06:23:35.713Z,9.60
2022-11-13T06:26:25.941Z,9.60
2022-11-13T06:29:13.909Z,9.50
2022-11-13T06:32:01.195Z,9.60
2022-11-13T06:34:48.380Z,9.60
2022-11-13T06:37:36.950Z,9.60
2022-11-13T06:43:25.602Z,9.60
2022-11-13T22:32:32.338Z,11.00
2022-11-13T22:35:19.929Z,10.90
2022-11-13T22:38:08.923Z,10.90
2022-11-13T22:40:57.258Z,10.80
2022-11-13T22:43:45.745Z,10.70
2022-11-13T22:46:34.906Z,10.70
2022-11-13T22:49:23.560Z,10.60
2022-11-13T22:52:10.939Z,10.60
2022-11-13T22:54:58.028Z,10.60
2022-11-13T22:57:45.269Z,10.50
2022-11-13T23:00:32.598Z,10.50
2022-11-13T23:03:19.789Z,10.60
2022-11-13T23:06:11.105Z,10.60
2022-11-13T23:08:58.366Z,10.60
2022-11-13T23:11:45.444Z,10.60
2022-11-13T23:14:32.531Z,10.50
2022-11-13T23:17:19.742Z,10.50
2022-11-13T23:20:07.942Z,10.50
2022-11-13T23:22:56.736Z,10.40
2022-11-13T23:25:44.011Z,10.40
2022-11-13T23:28:31.674Z,10.40
2022-11-13T23:31:18.888Z,10.30
2022-11-13T23:34:06.542Z,10.30
2022-11-13T23:36:53.254Z,10.30
2022-11-13T23:39:42.049Z,10.20
2022-11-13T23:42:53.422Z,10.20
2022-11-13T23:45:36.889Z,10.20
2022-11-13T23:48:24.487Z,10.10
2022-11-13T23:51:13.922Z,10.10
2022-11-13T23:54:01.160Z,10.10
2022-11-13T23:56:49.828Z,10.10
2022-11-13T23:59:46.613Z,10.00
